createdAt,value
2018-12-17T00:01:37.973Z,96641.47
2018-12-17T00:04:03.894Z,96633.17
2018-12-17T00:06:29.866Z,96633.45
2018-12-17T00:08:55.739Z,96636.58
2018-12-17T00:11:21.738Z,96635.55
2018-12-17T00:13:47.639Z,96632.76
2018-12-17T00:16:13.502Z,96633.63
2018-12-17T00:18:39.376Z,96639.66
2018-12-17T00:21:05.210Z,96640.90
2018-12-17T00:23:31.100Z,96645.40
2018-12-17T00:25:56.940Z,96639.72
2018-12-17T00:28:22.813Z,96648.91
2018-12-17T00:30:48.647Z,96648.95
2018-12-17T00:33:14.535Z,96659.17
2018-12-17T00:35:40.462Z,96657.32
2018-12-17T00:38:06.307Z,96665.30
2018-12-17T00:40:32.279Z,96665.55
2018-12-17T00:42:58.243Z,96665.11
2018-12-17T00:45:31.066Z,96672.68
2018-12-17T00:47:56.913Z,96662.37
2018-12-17T00:50:22.818Z,96666.44
2018-12-17T00:52:48.761Z,96669.14
2018-12-17T00:55:14.625Z,96672.11
2018-12-17T00:57:40.510Z,96681.62
2018-12-17T01:00:07.495Z,96676.13
2018-12-17T01:02:33.366Z,96684.43
2018-12-17T01:04:59.240Z,96679.55
2018-12-17T01:07:27.106Z,96682.66
2018-12-17T01:09:53.005Z,96680.30
2018-12-17T01:12:18.925Z,96687.22
2018-12-17T01:14:44.815Z,96691.60
2018-12-17T01:17:10.665Z,96694.73
2018-12-17T01:19:36.609Z,96693.27
2018-12-17T01:22:02.608Z,96701.27
2018-12-17T01:24:28.458Z,96698.11
2018-12-17T01:26:54.304Z,96707.68
2018-12-17T01:29:20.173Z,96704.52
2018-12-17T01:31:46.031Z,96705.20
2018-12-17T01:34:11.871Z,96705.50
2018-12-17T01:36:37.762Z,96400.77
2018-12-17T01:39:04.566Z,96711.30
2018-12-17T01:41:30.406Z,96710.23
2018-12-17T01:43:56.246Z,96715.66
2018-12-17T01:46:22.207Z,96711.25
2018-12-17T01:48:48.030Z,96713.65
2018-12-17T01:51:13.874Z,96722.66
2018-12-17T01:53:39.702Z,96722.14
2018-12-17T01:56:05.929Z,96725.00
2018-12-17T01:58:31.778Z,96726.59
2018-12-17T02:00:57.737Z,96725.56
2018-12-17T02:03:23.595Z,96725.84
2018-12-17T02:05:49.471Z,96725.33
2018-12-17T02:08:15.309Z,96731.54
2018-12-17T02:10:41.168Z,96731.83
2018-12-17T02:13:07.015Z,96731.64
2018-12-17T02:15:32.860Z,96729.86
2018-12-17T02:17:58.738Z,96735.05
2018-12-17T02:20:24.583Z,96732.70
2018-12-17T02:22:50.442Z,96742.53
2018-12-17T02:25:16.292Z,96735.78
2018-12-17T02:27:42.164Z,96745.16
2018-12-17T02:30:08.225Z,96738.13
2018-12-17T02:32:34.136Z,96749.05
2018-12-17T02:34:59.967Z,96750.05
2018-12-17T02:37:25.830Z,96743.48
2018-12-17T02:39:51.750Z,96742.16
2018-12-17T02:42:17.613Z,96743.27
2018-12-17T02:44:46.322Z,96748.19
2018-12-17T02:47:12.146Z,96741.41
2018-12-17T02:49:38.141Z,96745.05
2018-12-17T02:52:04.106Z,96741.70
2018-12-17T02:54:29.986Z,96747.45
2018-12-17T02:56:55.947Z,96749.27
2018-12-17T02:59:21.818Z,96745.05
2018-12-17T03:01:47.665Z,96747.97
2018-12-17T03:04:13.526Z,96745.91
2018-12-17T03:06:39.504Z,96751.80
2018-12-17T03:09:05.938Z,96748.70
2018-12-17T03:11:31.793Z,96752.91
2018-12-17T03:13:57.607Z,96756.07
2018-12-17T03:16:23.478Z,96752.94
2018-12-17T03:18:49.325Z,96752.40
2018-12-17T03:21:15.228Z,96762.80
2018-12-17T03:23:41.146Z,96763.56
2018-12-17T03:26:07.049Z,96765.89
2018-12-17T03:28:32.898Z,96765.10
2018-12-17T03:30:58.732Z,96763.07
2018-12-17T03:33:24.646Z,96770.56
2018-12-17T03:35:50.510Z,96772.94
2018-12-17T03:38:16.362Z,96774.88
2018-12-17T03:40:42.318Z,96775.13
2018-12-17T03:43:08.169Z,96775.44
2018-12-17T03:45:34.015Z,96779.21
2018-12-17T03:47:59.866Z,96775.22
2018-12-17T03:50:25.710Z,96776.72
2018-12-17T03:52:51.555Z,96770.20
2018-12-17T03:55:17.435Z,96777.20
2018-12-17T03:57:43.253Z,96780.02
2018-12-17T04:00:09.287Z,96778.42
2018-12-17T04:02:35.155Z,96772.16
2018-12-17T04:05:01.141Z,96766.16
2018-12-17T04:07:27.136Z,96771.64
2018-12-17T04:09:53.116Z,96778.94
2018-12-17T04:12:18.967Z,96784.86
2018-12-17T04:14:44.835Z,96785.88
2018-12-17T04:17:10.704Z,96791.59
2018-12-17T04:19:36.532Z,96789.23
2018-12-17T04:22:02.512Z,96796.23
2018-12-17T04:24:28.346Z,96788.27
2018-12-17T04:26:54.231Z,96792.91
2018-12-17T04:29:20.079Z,96792.40
2018-12-17T04:31:45.942Z,96798.86
2018-12-17T04:34:11.818Z,96800.18
2018-12-17T04:36:37.702Z,96803.59
2018-12-17T04:39:04.608Z,96807.34
2018-12-17T04:41:30.438Z,96812.58
2018-12-17T04:43:56.294Z,96817.91
2018-12-17T04:46:22.141Z,96815.04
2018-12-17T04:48:47.985Z,96823.66
2018-12-17T04:51:13.955Z,96831.97
2018-12-17T04:53:39.842Z,96838.34
2018-12-17T04:56:05.707Z,96847.70
2018-12-17T04:58:31.575Z,96855.49
2018-12-17T05:00:57.509Z,96855.00
2018-12-17T05:03:23.372Z,96854.03
2018-12-17T05:05:49.208Z,96852.64
2018-12-17T05:08:15.052Z,96861.70
2018-12-17T05:10:40.916Z,96865.28
2018-12-17T05:13:06.734Z,96862.09
2018-12-17T05:15:32.643Z,96862.80
2018-12-17T05:17:58.498Z,96866.66
2018-12-17T05:20:24.348Z,96866.44
2018-12-17T05:22:50.192Z,96877.04
2018-12-17T05:25:16.043Z,96875.23
2018-12-17T05:27:41.935Z,96879.31
2018-12-17T05:30:08.238Z,96881.09
2018-12-17T05:32:34.093Z,96877.47
2018-12-17T05:35:00.051Z,96876.69
2018-12-17T05:37:25.950Z,96874.98
2018-12-17T05:39:52.150Z,96876.98
2018-12-17T05:42:18.014Z,96883.56
2018-12-17T05:44:43.853Z,96880.94
2018-12-17T05:47:09.727Z,96886.91
2018-12-17T05:49:35.550Z,96884.88
2018-12-17T05:52:01.502Z,96891.41
2018-12-17T05:54:27.360Z,96898.95
2018-12-17T05:56:53.229Z,96899.03
2018-12-17T05:59:19.053Z,96902.90
2018-12-17T06:01:44.889Z,96904.87
2018-12-17T06:04:10.710Z,96903.33
2018-12-17T06:06:36.715Z,96902.54
2018-12-17T06:09:05.357Z,96909.33
2018-12-17T06:11:31.438Z,96911.80
2018-12-17T06:13:57.396Z,96916.72
2018-12-17T06:16:23.399Z,96920.59
2018-12-17T06:18:49.343Z,96920.88
2018-12-17T06:21:15.232Z,96922.67
2018-12-17T06:23:41.109Z,96933.12
2018-12-17T06:26:06.969Z,96934.84
2018-12-17T06:28:32.837Z,96932.83
2018-12-17T06:30:58.661Z,96938.12
2018-12-17T06:33:24.515Z,96936.39
2018-12-17T06:35:50.550Z,96933.22
2018-12-17T06:38:16.450Z,96940.91
2018-12-17T06:40:42.282Z,96943.80
2018-12-17T06:43:08.161Z,96953.92
2018-12-17T06:45:33.979Z,96953.05
2018-12-17T06:47:59.848Z,96953.45
2018-12-17T06:50:25.707Z,96957.02
2018-12-17T06:52:51.586Z,96967.50
2018-12-17T06:55:17.434Z,96964.81
2018-12-17T06:57:43.378Z,96968.47
2018-12-17T07:00:09.345Z,96975.89
2018-12-17T07:02:35.205Z,96983.25
2018-12-17T07:05:01.067Z,96981.59
2018-12-17T07:07:26.894Z,96979.72
2018-12-17T07:09:52.755Z,96993.38
2018-12-17T07:12:18.721Z,97003.43
2018-12-17T07:14:44.546Z,97008.86
2018-12-17T07:17:10.405Z,97013.19
2018-12-17T07:19:36.356Z,97020.19
2018-12-17T07:22:02.186Z,97023.30
2018-12-17T07:24:28.030Z,97025.05
2018-12-17T07:26:53.943Z,97025.59
2018-12-17T07:29:19.797Z,97031.55
2018-12-17T07:31:45.711Z,97026.02
2018-12-17T07:34:11.582Z,97030.30
2018-12-17T07:36:37.493Z,97032.97
2018-12-17T07:39:05.067Z,97042.57
2018-12-17T07:41:30.943Z,97046.17
2018-12-17T07:43:56.799Z,97049.28
2018-12-17T07:46:22.651Z,97051.64
2018-12-17T07:51:41.281Z,97059.36
2018-12-17T07:54:07.147Z,97063.23
2018-12-17T07:56:32.995Z,97058.25
2018-12-17T07:58:58.837Z,97059.82
2018-12-17T08:01:24.762Z,97071.96
2018-12-17T08:03:50.646Z,97071.06
2018-12-17T08:06:16.531Z,97079.88
2018-12-17T08:08:42.433Z,97084.02
2018-12-17T08:11:08.259Z,97087.97
2018-12-17T08:13:34.188Z,97086.43
2018-12-17T08:16:00.163Z,97091.60
2018-12-17T08:18:26.034Z,97089.03
2018-12-17T08:20:52.031Z,97096.52
2018-12-17T08:23:17.949Z,97098.97
2018-12-17T08:25:43.842Z,97105.67
2018-12-17T08:28:09.834Z,97116.23
2018-12-17T08:30:35.755Z,97118.75
2018-12-17T08:33:01.721Z,97122.56
2018-12-17T08:35:27.558Z,96937.97
2018-12-17T08:37:54.306Z,97124.73
2018-12-17T08:40:20.158Z,97129.55
2018-12-17T08:42:46.059Z,97129.25
2018-12-17T08:45:12.039Z,97121.45
2018-12-17T08:47:37.892Z,97121.03
2018-12-17T08:50:03.946Z,97133.16
2018-12-17T08:52:29.870Z,97140.13
2018-12-17T08:54:55.986Z,97135.38
2018-12-17T08:57:21.847Z,97140.27
2018-12-17T08:59:47.799Z,97146.30
2018-12-17T09:02:13.770Z,97152.78
2018-12-17T09:04:39.646Z,97150.99
2018-12-17T09:07:05.783Z,97158.55
2018-12-17T09:09:31.611Z,97160.34
2018-12-17T09:11:57.537Z,97157.72
2018-12-17T09:14:23.382Z,97160.61
2018-12-17T09:16:49.247Z,97162.42
2018-12-17T09:19:15.081Z,97155.66
2018-12-17T09:21:40.958Z,97159.28
2018-12-17T09:24:06.806Z,97165.55
2018-12-17T09:26:32.810Z,97165.44
2018-12-17T09:28:58.678Z,97161.80
2018-12-17T09:31:25.332Z,97167.01
2018-12-17T09:33:51.195Z,97170.45
2018-12-17T09:36:17.066Z,97168.77
2018-12-17T09:38:42.919Z,97168.84
2018-12-17T09:41:08.845Z,97170.92
2018-12-17T09:43:34.681Z,97184.59
2018-12-17T09:46:00.876Z,97186.38
2018-12-17T09:48:27.726Z,97187.06
2018-12-17T09:50:53.606Z,97187.95
2018-12-17T09:53:19.511Z,97186.92
2018-12-17T09:55:45.366Z,97190.02
2018-12-17T09:58:11.213Z,97190.09
2018-12-17T10:00:37.078Z,97195.55
2018-12-17T10:03:02.998Z,97199.94
2018-12-17T10:05:28.850Z,97190.86
2018-12-17T10:07:54.743Z,97184.65
2018-12-17T10:10:20.736Z,97185.95
2018-12-17T10:12:46.643Z,97176.47
2018-12-17T10:15:12.709Z,97172.94
2018-12-17T10:17:38.563Z,97173.28
2018-12-17T10:20:04.619Z,97178.61
2018-12-17T10:22:30.518Z,97175.70
2018-12-17T10:24:56.503Z,97165.10
2018-12-17T10:27:22.471Z,97154.42
2018-12-17T10:29:49.051Z,97162.48
2018-12-17T10:32:14.903Z,97164.71
2018-12-17T10:34:40.769Z,97166.91
2018-12-17T10:37:06.643Z,97170.97
2018-12-17T10:39:32.631Z,97176.20
2018-12-17T10:41:59.084Z,97181.72
2018-12-17T10:44:25.040Z,97181.94
2018-12-17T10:46:50.896Z,97188.68
2018-12-17T10:49:16.781Z,97191.68
2018-12-17T10:51:42.610Z,97188.29
2018-12-17T10:54:08.697Z,97187.87
2018-12-17T10:56:34.591Z,97187.28
2018-12-17T10:59:00.995Z,97185.22
2018-12-17T11:01:29.944Z,97186.86
2018-12-17T11:03:57.932Z,97192.52
2018-12-17T11:06:23.790Z,97190.08
2018-12-17T11:08:49.739Z,97192.44
2018-12-17T11:11:15.733Z,97187.83
2018-12-17T11:13:41.804Z,97187.58
2018-12-17T11:16:07.758Z,97188.95
2018-12-17T11:18:33.616Z,97178.56
2018-12-17T11:20:59.562Z,97183.26
2018-12-17T11:23:25.420Z,97182.74
2018-12-17T11:25:52.368Z,97191.20
2018-12-17T11:28:18.438Z,97188.05
2018-12-17T11:30:46.657Z,97185.08
2018-12-17T11:33:12.574Z,97176.98
2018-12-17T11:35:38.818Z,97184.38
2018-12-17T11:38:04.728Z,97174.87
2018-12-17T11:40:30.590Z,97166.14
2018-12-17T11:42:56.573Z,97174.69
2018-12-17T11:45:22.542Z,97170.49
2018-12-17T11:47:48.406Z,97177.00
2018-12-17T11:50:14.262Z,97177.23
2018-12-17T11:52:40.247Z,97182.41
2018-12-17T11:55:06.251Z,97180.77
2018-12-17T11:57:52.914Z,97187.11
2018-12-17T12:00:21.145Z,97189.89
2018-12-17T12:02:47.076Z,97188.70
2018-12-17T12:05:12.931Z,97187.97
2018-12-17T12:07:38.806Z,97190.13
2018-12-17T12:10:05.426Z,97188.55
2018-12-17T12:12:31.310Z,97195.23
2018-12-17T12:14:57.159Z,97190.64
2018-12-17T12:17:23.025Z,97197.36
2018-12-17T12:19:48.892Z,97201.88
2018-12-17T12:22:14.731Z,97197.14
2018-12-17T12:24:40.669Z,97199.53
2018-12-17T12:27:06.503Z,97208.69
2018-12-17T12:29:32.406Z,97206.35
2018-12-17T12:31:58.227Z,97197.75
2018-12-17T12:34:24.090Z,97199.13
2018-12-17T12:36:50.057Z,97186.16
2018-12-17T12:39:15.930Z,97198.52
2018-12-17T12:41:41.778Z,97201.72
2018-12-17T12:44:08.872Z,97209.44
2018-12-17T12:46:35.127Z,97211.86
2018-12-17T12:49:01.010Z,97206.13
2018-12-17T12:51:32.550Z,97199.32
2018-12-17T12:53:55.030Z,97203.56
2018-12-17T12:56:21.001Z,97212.33
2018-12-17T12:58:46.869Z,97212.56
2018-12-17T13:01:12.715Z,97225.18
2018-12-17T13:03:38.586Z,97225.63
2018-12-17T13:06:04.594Z,97228.23
2018-12-17T13:08:30.656Z,97229.52
2018-12-17T13:10:56.516Z,97228.20
2018-12-17T13:13:22.329Z,97233.45
2018-12-17T13:15:48.177Z,97228.11
2018-12-17T13:18:14.921Z,97226.25
2018-12-17T13:20:40.782Z,97226.63
2018-12-17T13:23:07.622Z,97226.87
2018-12-17T13:25:36.707Z,97222.89
2018-12-17T13:28:02.546Z,97223.98
2018-12-17T13:30:28.395Z,97229.25
2018-12-17T13:32:54.907Z,97229.61
2018-12-17T13:35:20.766Z,97230.14
2018-12-17T13:37:48.476Z,97233.80
2018-12-17T13:40:14.518Z,97234.96
2018-12-17T13:42:40.367Z,97237.92
2018-12-17T13:45:06.442Z,97250.58
2018-12-17T13:47:32.426Z,97247.36
2018-12-17T13:50:00.290Z,97248.66
2018-12-17T13:52:32.354Z,97256.50
2018-12-17T13:54:58.199Z,97258.91
2018-12-17T13:57:24.084Z,97262.45
2018-12-17T13:59:49.928Z,97266.86
2018-12-17T14:02:15.775Z,97277.02
2018-12-17T14:07:49.859Z,97274.41
2018-12-17T14:10:21.828Z,97271.48
2018-12-17T14:12:47.700Z,97278.59
2018-12-17T14:15:13.892Z,97273.41
2018-12-17T14:17:42.134Z,97274.61
2018-12-17T14:20:14.401Z,97277.73
2018-12-17T14:22:40.386Z,97279.23
2018-12-17T14:25:07.105Z,97286.83
2018-12-17T14:27:33.032Z,97294.00
2018-12-17T14:29:59.718Z,97296.36
2018-12-17T14:32:25.729Z,97297.23
2018-12-17T14:34:51.642Z,97296.94
2018-12-17T14:37:17.505Z,97302.37
2018-12-17T14:39:43.383Z,97292.78
2018-12-17T14:42:09.279Z,97296.22
2018-12-17T14:44:35.265Z,97303.41
2018-12-17T14:47:01.342Z,97298.88
2018-12-17T14:49:27.237Z,97293.61
2018-12-17T14:51:53.343Z,97299.61
2018-12-17T14:54:19.195Z,97298.92
2018-12-17T14:56:45.242Z,97294.23
2018-12-17T14:59:11.088Z,97300.23
2018-12-17T15:01:36.929Z,97309.39
2018-12-17T15:04:02.891Z,97314.31
2018-12-17T15:06:28.855Z,97316.70
2018-12-17T15:08:54.714Z,97326.03
2018-12-17T15:11:20.666Z,97326.58
2018-12-17T15:13:46.504Z,97329.16
2018-12-17T15:16:12.396Z,97337.77
2018-12-17T15:18:38.247Z,97333.78
2018-12-17T15:21:04.079Z,97340.55
2018-12-17T15:23:30.003Z,97339.44
2018-12-17T15:25:55.905Z,97347.94
2018-12-17T15:28:21.757Z,97352.53
2018-12-17T15:30:47.587Z,97354.91
2018-12-17T15:33:13.525Z,97350.70
2018-12-17T15:35:39.400Z,97351.95
2018-12-17T15:38:05.259Z,97356.11
2018-12-17T15:40:31.097Z,97360.47
2018-12-17T15:42:56.942Z,97353.60
2018-12-17T15:45:22.948Z,97357.52
2018-12-17T15:47:48.834Z,97362.39
2018-12-17T15:50:14.740Z,97372.56
2018-12-17T15:52:40.634Z,97366.63
2018-12-17T15:55:13.644Z,97372.63
2018-12-17T15:57:39.527Z,97368.56
2018-12-17T16:00:07.780Z,97370.52
2018-12-17T16:02:33.642Z,97382.61
2018-12-17T16:04:59.657Z,97386.25
2018-12-17T16:07:25.506Z,97395.16
2018-12-17T16:09:53.658Z,97396.42
2018-12-17T16:12:19.512Z,97396.58
2018-12-17T16:14:45.462Z,97399.33
2018-12-17T16:17:11.369Z,97402.22
2018-12-17T16:19:37.248Z,97410.61
2018-12-17T16:22:03.239Z,97408.79
2018-12-17T16:24:29.114Z,97410.42
2018-12-17T16:26:55.021Z,97413.22
2018-12-17T16:29:20.893Z,97416.31
2018-12-17T16:31:46.761Z,97418.21
2018-12-17T16:34:12.608Z,97421.72
2018-12-17T16:36:38.780Z,97425.95
2018-12-17T16:39:05.174Z,97427.98
2018-12-17T16:41:31.356Z,97433.50
2018-12-17T16:43:57.226Z,97432.69
2018-12-17T16:46:23.122Z,97428.53
2018-12-17T16:48:48.966Z,97429.56
2018-12-17T16:51:14.934Z,97430.32
2018-12-17T16:53:40.862Z,97428.80
2018-12-17T16:56:06.970Z,97425.16
2018-12-17T16:58:32.867Z,97434.77
2018-12-17T17:00:58.852Z,97433.45
2018-12-17T17:03:24.985Z,97439.42
2018-12-17T17:05:50.898Z,97445.66
2018-12-17T17:08:16.742Z,97443.90
2018-12-17T17:10:42.599Z,97439.44
2018-12-17T17:13:08.439Z,97445.14
2018-12-17T17:15:34.327Z,97447.27
2018-12-17T17:18:00.254Z,97448.08
2018-12-17T17:20:26.114Z,97460.08
2018-12-17T17:22:51.967Z,97458.80
2018-12-17T17:25:17.890Z,97457.75
2018-12-17T17:27:43.750Z,97463.47
2018-12-17T17:30:09.864Z,97464.80
2018-12-17T17:32:35.822Z,97468.42
2018-12-17T17:35:01.662Z,97467.93
2018-12-17T17:37:35.186Z,97469.83
2018-12-17T17:40:01.547Z,97468.44
2018-12-17T17:42:27.546Z,97475.81
2018-12-17T17:44:53.429Z,97473.93
2018-12-17T17:47:19.307Z,97477.54
2018-12-17T17:49:45.272Z,97481.15
2018-12-17T17:52:11.166Z,97488.45
2018-12-17T17:54:37.008Z,97488.97
2018-12-17T17:57:02.914Z,97501.58
2018-12-17T17:59:28.813Z,97504.39
2018-12-17T18:01:54.836Z,97506.58
2018-12-17T18:04:20.890Z,97513.12
2018-12-17T18:06:46.855Z,97507.36
2018-12-17T18:09:12.796Z,97520.22
2018-12-17T18:11:38.796Z,97525.00
2018-12-17T18:14:04.914Z,97527.19
2018-12-17T18:16:30.796Z,97536.61
2018-12-17T18:18:56.710Z,97540.77
2018-12-17T18:21:22.557Z,97540.00
2018-12-17T18:23:48.529Z,97543.21
2018-12-17T18:26:14.421Z,97537.24
2018-12-17T18:28:40.301Z,97546.30
2018-12-17T18:31:06.195Z,97550.48
2018-12-17T18:33:32.050Z,97554.12
2018-12-17T18:35:58.036Z,97564.20
2018-12-17T18:38:23.900Z,97562.90
2018-12-17T18:40:49.772Z,97565.63
2018-12-17T18:43:15.716Z,97573.35
2018-12-17T18:45:42.339Z,97576.98
2018-12-17T18:48:08.391Z,97571.26
2018-12-17T18:50:34.296Z,97565.88
2018-12-17T18:53:00.225Z,97559.59
2018-12-17T18:55:26.106Z,97557.59
2018-12-17T18:57:52.010Z,97566.53
2018-12-17T19:00:18.040Z,97572.14
2018-12-17T19:02:43.950Z,97576.13
2018-12-17T19:05:09.802Z,97582.02
2018-12-17T19:07:35.688Z,97580.89
2018-12-17T19:10:02.870Z,97582.43
2018-12-17T19:12:29.695Z,97577.91
2018-12-17T19:14:55.573Z,97581.69
2018-12-17T19:17:21.549Z,97584.66
2018-12-17T19:19:47.477Z,97587.91
2018-12-17T19:22:13.846Z,97587.70
2018-12-17T19:24:39.735Z,97585.40
2018-12-17T19:27:07.028Z,97586.39
2018-12-17T19:29:32.952Z,97589.66
2018-12-17T19:31:58.866Z,97593.20
2018-12-17T19:34:25.836Z,97595.88
2018-12-17T19:36:51.874Z,97599.87
2018-12-17T19:39:17.737Z,97594.88
2018-12-17T19:41:43.656Z,97598.20
2018-12-17T19:44:09.575Z,97602.88
2018-12-17T19:46:35.751Z,97605.48
2018-12-17T19:49:01.711Z,97605.23
2018-12-17T19:51:34.580Z,97609.59
2018-12-17T19:54:00.471Z,97612.54
2018-12-17T19:56:26.395Z,97604.52
2018-12-17T19:58:52.287Z,97617.64
2018-12-17T20:01:18.182Z,97618.11
2018-12-17T20:03:44.159Z,97619.50
2018-12-17T20:06:10.134Z,97624.04
2018-12-17T20:08:36.075Z,97626.30
2018-12-17T20:11:02.011Z,97631.13
2018-12-17T20:13:27.907Z,97630.23
2018-12-17T20:15:53.770Z,97625.42
2018-12-17T20:18:19.642Z,97620.41
2018-12-17T20:20:45.572Z,97622.23
2018-12-17T20:23:11.444Z,97629.05
2018-12-17T20:25:37.312Z,97634.05
2018-12-17T20:28:03.168Z,97630.02
2018-12-17T20:30:29.118Z,97646.45
2018-12-17T20:32:55.009Z,97644.58
2018-12-17T20:35:20.912Z,97632.81
2018-12-17T20:37:46.872Z,97643.03
2018-12-17T20:40:12.743Z,97639.09
2018-12-17T20:42:38.650Z,97648.48
2018-12-17T20:45:05.758Z,97652.80
2018-12-17T20:47:31.587Z,97652.72
2018-12-17T20:49:57.554Z,97648.47
2018-12-17T20:52:23.415Z,97651.57
2018-12-17T20:54:49.291Z,97652.40
2018-12-17T20:57:15.137Z,97658.09
2018-12-17T20:59:41.012Z,97663.92
2018-12-17T21:02:06.895Z,97656.20
2018-12-17T21:04:32.917Z,97652.70
2018-12-17T21:06:58.814Z,97657.98
2018-12-17T21:09:24.818Z,97662.75
2018-12-17T21:11:50.695Z,97663.38
2018-12-17T21:14:23.432Z,97664.44
2018-12-17T21:16:45.274Z,97663.55
2018-12-17T21:22:08.411Z,97688.63
2018-12-17T21:24:34.932Z,97669.09
2018-12-17T21:27:00.789Z,97676.95
2018-12-17T21:29:26.648Z,97682.17
2018-12-17T21:31:52.551Z,97671.93
2018-12-17T21:34:18.402Z,97676.82
2018-12-17T21:36:44.315Z,97671.30
2018-12-17T21:39:10.203Z,97671.64
2018-12-17T21:41:36.092Z,97668.68
2018-12-17T21:44:02.201Z,97666.38
2018-12-17T21:46:28.111Z,97668.75
2018-12-17T21:48:54.136Z,97669.53
2018-12-17T21:51:19.975Z,97669.88
2018-12-17T21:53:45.838Z,97668.05
2018-12-17T21:56:11.883Z,97671.17
2018-12-17T21:58:38.089Z,97672.66
2018-12-17T22:01:03.942Z,97681.03
2018-12-17T22:03:29.905Z,97684.95
2018-12-17T22:05:55.800Z,97685.19
2018-12-17T22:08:21.669Z,97681.03
2018-12-17T22:10:47.512Z,97682.13
2018-12-17T22:13:13.366Z,97674.30
2018-12-17T22:15:39.234Z,97678.76
2018-12-17T22:18:05.106Z,97679.83
2018-12-17T22:20:31.050Z,97682.19
2018-12-17T22:22:56.922Z,97674.13
2018-12-17T22:25:22.817Z,97682.73
2018-12-17T22:27:48.702Z,97690.08
2018-12-17T22:30:21.670Z,97683.63
2018-12-17T22:32:47.553Z,97689.56
2018-12-17T22:35:13.570Z,97696.42
2018-12-17T22:37:39.517Z,97694.88
2018-12-17T22:40:05.644Z,97702.19
2018-12-17T22:42:31.513Z,97689.14
2018-12-17T22:44:57.353Z,97688.11
2018-12-17T22:47:23.297Z,97691.02
2018-12-17T22:49:49.165Z,97692.05
2018-12-17T22:52:15.055Z,97693.91
2018-12-17T22:54:40.902Z,97707.56
2018-12-17T22:57:06.758Z,97713.61
2018-12-17T22:59:32.593Z,97709.72
2018-12-17T23:01:58.570Z,97709.32
2018-12-17T23:04:24.446Z,97705.16
2018-12-17T23:06:50.288Z,97709.90
2018-12-17T23:09:16.072Z,97705.98
2018-12-17T23:12:00.658Z,97710.66
2018-12-17T23:14:38.717Z,97707.05
2018-12-17T23:17:16.837Z,97705.50
2018-12-17T23:19:43.441Z,97704.67
2018-12-17T23:22:09.848Z,97704.22
2018-12-17T23:24:36.258Z,97702.64
2018-12-17T23:27:02.141Z,97708.35
2018-12-17T23:29:28.003Z,97712.38
2018-12-17T23:31:53.870Z,97707.41
2018-12-17T23:34:19.743Z,97716.84
2018-12-17T23:36:45.683Z,97710.40
2018-12-17T23:39:11.546Z,97713.36
2018-12-17T23:41:37.400Z,97708.55
2018-12-17T23:44:03.316Z,97707.16
2018-12-17T23:46:29.785Z,97707.54
2018-12-17T23:48:55.713Z,97704.65
2018-12-17T23:51:21.705Z,97709.92
2018-12-17T23:53:47.584Z,97704.75
2018-12-17T23:56:13.427Z,97710.55
2018-12-17T23:58:39.429Z,97710.17
